TBO weather

Tabora Airport
Tabora, Tabora Region, Tanzania

Public forecast

Using degrees Celsius for public forecast. Weather courtesy of forecast.io.

Current aviation weather report (METAR) for Tabora Airport

Retrieved 2020/06/02 06:00 UTC (58 minutes ago):

HTTB 020600Z 12015KT 9999 FEW014 20/15 Q1021 NOSIG

Aviation forecast (TAF) for Tabora Airport

Forecast is more than 12 hours old.

Retrieved 2020/05/16 18:33 UTC (17 days ago):

TAF HTTB 161700Z 1618/1718 16010KT 9999 SCT020